Terminal Aerodrome Forecast
Issued by NWS

Home | Current Version | Previous Version | Text Only | Print | Product List | Glossary On
Versions: 1 2 3 4 5 6 7 8 9 10 11 12 13 14
000
FTUS45 KRIW 270520
TAFJAC
TAF
KJAC 270520Z 2706/2806 20006KT P6SM VCSH SCT030 BKN050
     FM271500 19007KT 6SM -RASN SCT020 BKN035
     FM272100 17006KT 5SM -RASN SCT010 BKN020
     FM280300 35007KT P6SM VCSH SCT025 BKN040
      AMD LTD TO CLD VIS AND WIND=

USA.gov is the U.S. government's official web portal to all federal, state and local government web resources and services.